createdAt,value
2023-04-29T00:00:44.030Z,14.37
2023-04-29T00:03:11.493Z,14.31
2023-04-29T00:05:38.523Z,14.40
2023-04-29T00:08:05.983Z,14.53
2023-04-29T00:10:32.969Z,14.53
2023-04-29T00:12:59.679Z,14.58
2023-04-29T00:15:26.393Z,14.73
2023-04-29T00:17:53.245Z,14.66
2023-04-29T00:20:20.196Z,14.60
2023-04-29T00:22:47.117Z,14.53
2023-04-29T00:25:13.855Z,14.61
2023-04-29T00:27:40.828Z,14.55
2023-04-29T00:30:08.550Z,14.48
2023-04-29T00:32:36.420Z,14.49
2023-04-29T00:35:03.395Z,14.70
2023-04-29T00:37:31.204Z,14.65
2023-04-29T00:39:57.883Z,14.56
2023-04-29T00:42:25.935Z,14.45
2023-04-29T00:44:52.773Z,14.43
2023-04-29T00:47:19.540Z,14.47
2023-04-29T00:49:46.395Z,14.28
2023-04-29T00:52:14.218Z,14.33
2023-04-29T00:54:41.046Z,14.31
2023-04-29T00:57:07.870Z,14.34
2023-04-29T00:59:35.538Z,14.24
2023-04-29T01:02:03.961Z,14.25
2023-04-29T01:04:31.590Z,14.26
2023-04-29T01:07:12.624Z,14.24
2023-04-29T01:10:09.518Z,14.02
2023-04-29T01:12:36.396Z,13.96
2023-04-29T01:15:31.291Z,13.96
2023-04-29T01:18:12.664Z,14.12
2023-04-29T01:20:40.443Z,14.16
2023-04-29T01:23:07.103Z,14.18
2023-04-29T01:25:35.553Z,14.17
2023-04-29T01:28:47.765Z,14.03
2023-04-29T01:31:46.144Z,14.05
2023-04-29T01:34:25.781Z,14.00
2023-04-29T01:37:08.780Z,14.15
2023-04-29T01:40:14.645Z,14.26
2023-04-29T01:43:01.767Z,14.08
2023-04-29T01:45:32.112Z,14.10
2023-04-29T01:47:59.616Z,14.21
2023-04-29T01:50:27.397Z,14.17
2023-04-29T01:52:57.493Z,14.16
2023-04-29T01:55:24.301Z,14.27
2023-04-29T01:58:00.772Z,14.23
2023-04-29T02:00:43.221Z,14.15
2023-04-29T02:03:10.248Z,14.27
2023-04-29T02:05:40.108Z,14.36
2023-04-29T02:08:07.771Z,14.29
2023-04-29T02:10:38.894Z,14.32
2023-04-29T02:13:16.137Z,14.35
2023-04-29T02:15:43.063Z,14.30
2023-04-29T02:18:10.271Z,14.41
2023-04-29T02:20:36.941Z,14.38
2023-04-29T02:23:05.510Z,14.19
2023-04-29T02:25:32.163Z,14.15
2023-04-29T02:27:59.025Z,14.13
2023-04-29T02:30:26.242Z,14.13
2023-04-29T02:32:53.108Z,14.06
2023-04-29T02:35:19.799Z,14.05
2023-04-29T02:37:47.838Z,14.03
2023-04-29T02:40:14.514Z,13.96
2023-04-29T02:42:41.592Z,13.92
2023-04-29T02:45:08.829Z,13.87
2023-04-29T02:47:35.555Z,13.77
2023-04-29T02:50:20.862Z,13.75
2023-04-29T02:53:06.712Z,13.70
2023-04-29T02:55:34.147Z,13.53
2023-04-29T02:58:06.634Z,13.52
2023-04-29T03:00:33.347Z,13.43
2023-04-29T03:03:00.364Z,13.37
2023-04-29T03:05:27.286Z,13.40
2023-04-29T03:07:54.647Z,13.34
2023-04-29T03:10:22.033Z,13.39
2023-04-29T03:12:48.718Z,13.43
2023-04-29T03:15:15.902Z,13.38
2023-04-29T03:17:45.628Z,13.42
2023-04-29T03:20:14.188Z,13.48
2023-04-29T03:22:41.060Z,13.45
2023-04-29T03:25:10.420Z,13.45
2023-04-29T03:27:39.189Z,13.36
2023-04-29T03:30:06.931Z,13.35
2023-04-29T03:32:35.319Z,13.36
2023-04-29T03:35:02.251Z,13.42
2023-04-29T03:37:37.226Z,13.42
2023-04-29T03:40:18.929Z,13.41
2023-04-29T03:42:45.838Z,13.31
2023-04-29T03:45:15.598Z,13.33
2023-04-29T03:47:42.450Z,13.44
2023-04-29T03:50:09.366Z,13.31
2023-04-29T03:52:36.937Z,13.30
2023-04-29T03:55:10.199Z,13.33
2023-04-29T03:57:37.199Z,13.31
2023-04-29T04:00:05.748Z,13.46
2023-04-29T04:02:41.047Z,13.32
2023-04-29T04:05:10.833Z,13.36
2023-04-29T04:07:39.907Z,13.29
2023-04-29T04:10:28.179Z,13.38
2023-04-29T04:12:56.398Z,13.28
2023-04-29T04:15:23.190Z,13.13
2023-04-29T04:17:50.015Z,13.08
2023-04-29T04:20:17.308Z,13.11
2023-04-29T04:22:44.742Z,13.10
2023-04-29T04:25:30.491Z,13.24
2023-04-29T04:28:07.528Z,13.16
2023-04-29T04:30:56.817Z,13.15
2023-04-29T04:33:23.720Z,13.13
2023-04-29T04:35:50.393Z,13.22
2023-04-29T04:38:17.484Z,13.30
2023-04-29T04:40:44.756Z,13.36
2023-04-29T04:43:32.521Z,13.52
2023-04-29T04:45:59.508Z,13.49
2023-04-29T04:48:26.501Z,13.52
2023-04-29T04:50:54.389Z,13.54
2023-04-29T04:53:22.408Z,13.58
2023-04-29T04:55:53.413Z,13.59
2023-04-29T04:58:20.530Z,13.59
2023-04-29T05:00:48.247Z,13.54
2023-04-29T05:03:15.053Z,13.65
2023-04-29T05:05:41.791Z,13.64
2023-04-29T05:08:08.669Z,13.57
2023-04-29T05:10:44.403Z,13.53
2023-04-29T05:13:12.165Z,13.42
2023-04-29T05:15:39.529Z,13.41
2023-04-29T05:18:07.751Z,13.47
2023-04-29T05:20:34.975Z,13.62
2023-04-29T05:23:03.077Z,13.71
2023-04-29T05:25:34.856Z,13.63
2023-04-29T05:28:03.375Z,13.62
2023-04-29T05:30:32.380Z,13.53
2023-04-29T05:32:59.256Z,13.75
2023-04-29T05:35:26.383Z,13.75
2023-04-29T05:37:54.742Z,13.63
2023-04-29T05:40:32.850Z,13.67
2023-04-29T05:43:16.575Z,13.65
2023-04-29T05:45:46.734Z,13.61
2023-04-29T05:48:13.438Z,13.64
2023-04-29T05:50:40.232Z,13.67
2023-04-29T05:53:07.065Z,13.66
2023-04-29T05:55:34.906Z,13.71
2023-04-29T05:58:01.680Z,13.63
2023-04-29T06:00:28.881Z,13.70
2023-04-29T06:03:02.581Z,13.59
2023-04-29T06:05:29.684Z,13.65
2023-04-29T06:08:10.751Z,13.71
2023-04-29T06:10:46.140Z,13.47
2023-04-29T06:13:13.134Z,13.41
2023-04-29T06:15:39.908Z,13.54
2023-04-29T06:18:06.690Z,13.56
2023-04-29T06:20:34.873Z,13.78
2023-04-29T06:23:02.775Z,13.63
2023-04-29T06:25:29.472Z,13.67
2023-04-29T06:27:57.655Z,13.63
2023-04-29T06:30:30.830Z,13.79
2023-04-29T06:32:57.836Z,13.75
2023-04-29T06:35:24.849Z,13.76
2023-04-29T06:38:08.112Z,13.84
2023-04-29T06:40:53.312Z,14.02
2023-04-29T06:43:29.757Z,13.95
2023-04-29T06:46:34.726Z,13.67
2023-04-29T06:49:10.010Z,13.67
2023-04-29T06:51:39.845Z,13.62
2023-04-29T06:54:06.646Z,13.61
2023-04-29T06:56:33.454Z,13.53
2023-04-29T06:59:00.252Z,13.55
2023-04-29T07:01:28.064Z,13.44
2023-04-29T07:03:54.930Z,13.34
2023-04-29T07:06:21.691Z,13.46
2023-04-29T07:08:48.469Z,13.47
2023-04-29T07:11:15.726Z,13.46
2023-04-29T07:13:42.946Z,13.43
2023-04-29T07:16:20.484Z,13.37
2023-04-29T07:18:50.991Z,13.41
2023-04-29T07:21:17.616Z,13.58
2023-04-29T07:23:44.427Z,13.49
2023-04-29T07:26:15.868Z,13.55
2023-04-29T07:28:45.604Z,13.61
2023-04-29T07:31:12.426Z,13.54
2023-04-29T07:33:39.331Z,13.42
2023-04-29T07:36:07.454Z,13.53
2023-04-29T07:38:34.805Z,13.69
2023-04-29T07:41:01.776Z,13.57
2023-04-29T07:43:29.069Z,13.60
2023-04-29T07:45:55.948Z,13.63
2023-04-29T07:48:22.935Z,13.49
2023-04-29T07:50:49.682Z,13.45
2023-04-29T07:53:18.409Z,13.55
2023-04-29T07:55:45.412Z,13.57
2023-04-29T07:58:12.208Z,13.83
2023-04-29T08:00:39.035Z,13.71
2023-04-29T08:03:06.557Z,13.66
2023-04-29T08:05:33.911Z,13.55
2023-04-29T08:08:01.083Z,13.75
2023-04-29T08:10:27.922Z,13.63
2023-04-29T08:12:54.708Z,13.46
2023-04-29T08:15:22.518Z,13.63
2023-04-29T08:17:49.372Z,13.57
2023-04-29T08:20:16.270Z,13.63
2023-04-29T08:22:42.961Z,13.81
2023-04-29T08:25:10.120Z,13.74
2023-04-29T08:27:36.931Z,13.80
2023-04-29T08:30:04.573Z,13.73
2023-04-29T08:32:32.402Z,13.65
2023-04-29T08:35:01.712Z,13.72
2023-04-29T08:37:31.177Z,13.64
2023-04-29T08:39:57.842Z,13.69
2023-04-29T08:42:35.047Z,13.83
2023-04-29T08:45:03.807Z,13.67
2023-04-29T08:47:34.470Z,13.87
2023-04-29T08:50:05.573Z,13.85
2023-04-29T08:52:33.709Z,13.95
2023-04-29T08:55:02.586Z,13.92
2023-04-29T08:57:40.028Z,13.93
2023-04-29T09:00:10.320Z,13.99
2023-04-29T09:02:56.576Z,13.93
2023-04-29T09:05:25.266Z,13.85
2023-04-29T09:07:52.629Z,13.85
2023-04-29T09:10:19.998Z,13.96
2023-04-29T09:12:46.790Z,13.90
2023-04-29T09:15:13.582Z,13.84
2023-04-29T09:17:46.240Z,13.95
2023-04-29T09:20:22.493Z,13.80
2023-04-29T09:22:54.149Z,13.68
2023-04-29T09:25:21.699Z,13.66
2023-04-29T09:27:48.496Z,13.83
2023-04-29T09:30:16.716Z,13.91
2023-04-29T09:32:45.048Z,14.02
2023-04-29T09:35:25.928Z,14.16
2023-04-29T09:38:07.788Z,14.14
2023-04-29T09:40:43.506Z,14.39
2023-04-29T09:43:18.941Z,14.42
2023-04-29T09:45:47.590Z,14.42
2023-04-29T09:48:15.797Z,14.38
2023-04-29T09:50:44.921Z,14.56
2023-04-29T09:53:12.075Z,14.60
2023-04-29T09:55:53.954Z,14.73
2023-04-29T09:58:37.489Z,14.61
2023-04-29T10:01:05.603Z,14.64
2023-04-29T10:03:38.092Z,14.53
2023-04-29T10:06:06.781Z,14.48
2023-04-29T10:08:35.062Z,14.52
2023-04-29T10:11:04.119Z,14.39
2023-04-29T10:13:31.456Z,14.52
2023-04-29T10:16:09.046Z,14.66
2023-04-29T10:18:37.919Z,14.67
2023-04-29T10:21:09.489Z,14.77
2023-04-29T10:23:37.114Z,14.77
2023-04-29T10:26:06.104Z,14.86
2023-04-29T10:28:33.205Z,15.00
2023-04-29T10:31:06.730Z,15.01
2023-04-29T10:33:35.564Z,15.06
2023-04-29T10:36:03.316Z,15.02
2023-04-29T10:38:47.489Z,14.98
2023-04-29T10:41:25.462Z,15.13
2023-04-29T10:43:55.839Z,15.15
2023-04-29T10:46:25.319Z,15.22
2023-04-29T10:49:06.703Z,15.19
2023-04-29T10:51:44.399Z,15.19
2023-04-29T10:54:16.632Z,15.39
2023-04-29T10:56:48.180Z,15.26
2023-04-29T10:59:36.586Z,15.39
2023-04-29T11:02:03.431Z,15.08
2023-04-29T11:04:31.586Z,15.14
2023-04-29T11:06:59.149Z,15.02
2023-04-29T11:09:28.387Z,15.12
2023-04-29T11:11:55.205Z,15.02
2023-04-29T11:14:38.812Z,15.35
2023-04-29T11:17:09.931Z,15.28
2023-04-29T11:19:50.903Z,15.43
2023-04-29T11:22:17.657Z,15.31
2023-04-29T11:24:50.765Z,15.11
2023-04-29T11:27:19.444Z,15.19
2023-04-29T11:29:50.015Z,15.17
2023-04-29T11:32:20.096Z,15.32
2023-04-29T11:34:46.795Z,15.53
2023-04-29T11:37:13.447Z,15.28
2023-04-29T11:39:40.156Z,15.43
2023-04-29T11:42:07.252Z,15.56
2023-04-29T11:44:37.557Z,15.52
2023-04-29T11:47:05.738Z,15.35
2023-04-29T11:49:34.198Z,15.52
2023-04-29T11:52:01.237Z,15.67
2023-04-29T11:54:29.516Z,15.34
2023-04-29T11:56:58.198Z,15.66
2023-04-29T11:59:24.957Z,15.95
2023-04-29T12:01:51.653Z,15.69
2023-04-29T12:04:19.605Z,15.90
2023-04-29T12:06:46.897Z,15.83
2023-04-29T12:09:15.340Z,16.11
2023-04-29T12:11:42.304Z,16.07
2023-04-29T12:14:09.163Z,16.26
2023-04-29T12:16:36.744Z,16.06
2023-04-29T12:19:03.787Z,16.10
2023-04-29T12:21:31.790Z,16.17
2023-04-29T12:24:00.542Z,16.03
2023-04-29T12:26:31.403Z,15.77
2023-04-29T12:29:01.573Z,15.89
2023-04-29T12:31:37.067Z,15.91
2023-04-29T12:34:07.513Z,15.83
2023-04-29T12:36:37.266Z,15.90
2023-04-29T12:39:08.321Z,15.86
2023-04-29T12:41:40.146Z,15.93
2023-04-29T12:44:07.313Z,15.70
2023-04-29T12:46:36.158Z,15.92
2023-04-29T12:49:04.136Z,15.75
2023-04-29T12:51:32.290Z,15.87
2023-04-29T12:54:07.295Z,15.66
2023-04-29T12:56:34.032Z,15.48
2023-04-29T12:59:10.553Z,15.37
2023-04-29T13:01:37.698Z,15.41
2023-04-29T13:04:06.221Z,15.30
2023-04-29T13:06:33.267Z,15.41
2023-04-29T13:09:00.119Z,15.39
2023-04-29T13:11:32.227Z,15.35
2023-04-29T13:14:01.027Z,15.56
2023-04-29T13:16:27.879Z,15.50
2023-04-29T13:19:08.593Z,15.34
2023-04-29T13:21:41.186Z,15.23
2023-04-29T13:24:08.350Z,15.44
2023-04-29T13:26:35.021Z,15.43
2023-04-29T13:29:01.820Z,15.53
2023-04-29T13:31:28.519Z,15.61
2023-04-29T13:33:55.441Z,15.61
2023-04-29T13:36:22.216Z,15.85
2023-04-29T13:38:54.102Z,15.73
2023-04-29T13:41:22.726Z,15.82
2023-04-29T13:43:50.970Z,15.75
2023-04-29T13:46:20.729Z,15.70
2023-04-29T13:52:01.384Z,15.21
2023-04-29T13:59:39.454Z,15.27
2023-04-29T14:04:20.774Z,15.59
2023-04-29T14:06:47.620Z,15.49
2023-04-29T14:09:14.357Z,15.72
2023-04-29T14:11:41.169Z,15.74
2023-04-29T14:14:08.016Z,15.89
2023-04-29T14:16:34.773Z,16.12
2023-04-29T14:19:03.858Z,15.88
2023-04-29T14:21:32.998Z,15.84
2023-04-29T14:24:02.382Z,15.86
2023-04-29T14:26:29.790Z,15.72
2023-04-29T14:29:00.255Z,15.77
2023-04-29T14:31:29.376Z,15.79
2023-04-29T14:33:57.660Z,15.57
2023-04-29T14:36:25.006Z,15.64
2023-04-29T14:38:51.840Z,15.61
2023-04-29T14:41:18.600Z,15.46
2023-04-29T14:43:45.825Z,15.47
2023-04-29T14:46:13.023Z,15.58
2023-04-29T14:48:39.914Z,16.12
2023-04-29T14:51:07.269Z,16.56
2023-04-29T14:53:34.263Z,17.01
2023-04-29T14:56:01.046Z,17.98
2023-04-29T14:58:27.679Z,17.48
2023-04-29T15:00:54.335Z,17.90
2023-04-29T15:03:23.176Z,17.27
2023-04-29T15:05:51.313Z,17.21
2023-04-29T15:08:19.254Z,16.91
2023-04-29T15:10:50.085Z,17.50
2023-04-29T15:13:16.922Z,17.01
2023-04-29T15:15:43.683Z,16.66
2023-04-29T15:18:10.632Z,16.58
2023-04-29T15:20:37.919Z,16.72
2023-04-29T15:23:05.599Z,16.68
2023-04-29T15:25:36.243Z,16.86
2023-04-29T15:28:04.503Z,16.96
2023-04-29T15:30:31.637Z,16.64
2023-04-29T15:32:58.369Z,16.72
2023-04-29T15:35:25.224Z,16.68
2023-04-29T15:37:51.860Z,16.63
2023-04-29T15:40:18.500Z,16.27
2023-04-29T15:42:45.138Z,16.02
2023-04-29T15:45:12.339Z,16.15
2023-04-29T15:47:41.908Z,16.06
2023-04-29T15:50:10.337Z,16.00
2023-04-29T15:52:37.073Z,16.00
2023-04-29T15:55:05.259Z,16.09
2023-04-29T15:57:32.594Z,16.09
2023-04-29T15:59:59.306Z,16.19
2023-04-29T16:02:25.968Z,16.13
2023-04-29T16:04:52.908Z,16.12
2023-04-29T16:07:19.571Z,16.12
2023-04-29T16:09:46.556Z,15.98
2023-04-29T16:12:13.895Z,15.83
2023-04-29T16:14:40.672Z,16.17
2023-04-29T16:17:07.775Z,16.05
2023-04-29T16:19:36.771Z,15.99
2023-04-29T16:22:04.537Z,16.05
2023-04-29T16:24:31.209Z,16.22
2023-04-29T16:26:58.806Z,16.09
2023-04-29T16:29:25.624Z,16.44
2023-04-29T16:31:52.379Z,16.55
2023-04-29T16:34:19.948Z,16.60
2023-04-29T16:36:46.698Z,16.60
2023-04-29T16:39:13.749Z,16.35
2023-04-29T16:41:41.290Z,16.44
2023-04-29T16:44:08.625Z,16.37
2023-04-29T16:46:35.682Z,16.19
2023-04-29T16:49:02.907Z,16.12
2023-04-29T16:51:29.621Z,15.96
2023-04-29T16:53:56.628Z,15.78
2023-04-29T16:56:23.352Z,15.72
2023-04-29T16:58:50.038Z,15.74
2023-04-29T17:01:19.632Z,15.66
2023-04-29T17:03:50.206Z,15.70
2023-04-29T17:06:17.270Z,15.50
2023-04-29T17:08:44.529Z,15.42
2023-04-29T17:11:11.613Z,15.41
2023-04-29T17:13:39.398Z,15.29
2023-04-29T17:16:06.936Z,15.14
2023-04-29T17:18:34.153Z,15.29
2023-04-29T17:21:00.899Z,15.31
2023-04-29T17:23:27.948Z,15.25
2023-04-29T17:25:55.448Z,15.19
2023-04-29T17:28:23.397Z,15.10
2023-04-29T17:30:50.369Z,15.20
2023-04-29T17:33:17.505Z,15.00
2023-04-29T17:35:45.197Z,15.16
2023-04-29T17:38:12.028Z,15.10
2023-04-29T17:40:38.735Z,15.08
2023-04-29T17:43:05.405Z,15.00
2023-04-29T17:45:32.115Z,14.99
2023-04-29T17:47:58.845Z,15.10
2023-04-29T17:50:25.567Z,14.95
2023-04-29T17:52:52.381Z,14.99
2023-04-29T17:55:19.449Z,14.85
2023-04-29T17:57:46.729Z,14.80
2023-04-29T18:00:13.884Z,14.85
2023-04-29T18:02:40.642Z,14.80
2023-04-29T18:05:07.477Z,14.79
2023-04-29T18:07:34.161Z,14.69
2023-04-29T18:10:00.976Z,14.74
2023-04-29T18:12:27.969Z,14.77
2023-04-29T18:14:54.737Z,14.70
2023-04-29T18:17:21.547Z,14.53
2023-04-29T18:19:49.485Z,14.56
2023-04-29T18:22:16.392Z,14.38
2023-04-29T18:24:43.711Z,14.34
2023-04-29T18:27:10.407Z,14.41
2023-04-29T18:29:37.218Z,14.45
2023-04-29T18:32:06.464Z,14.44
2023-04-29T18:34:34.620Z,14.48
2023-04-29T18:37:01.599Z,14.50
2023-04-29T18:39:28.361Z,14.62
2023-04-29T18:41:55.574Z,14.52
2023-04-29T18:44:22.313Z,14.58
2023-04-29T18:46:49.034Z,14.55
2023-04-29T18:49:17.717Z,14.62
2023-04-29T18:51:48.123Z,14.56
2023-04-29T18:54:17.119Z,14.40
2023-04-29T18:56:48.760Z,14.45
2023-04-29T18:59:19.331Z,14.58
2023-04-29T19:01:48.173Z,14.50
2023-04-29T19:04:15.633Z,14.46
2023-04-29T19:06:43.068Z,14.52
2023-04-29T19:09:11.218Z,14.45
2023-04-29T19:11:38.078Z,14.43
2023-04-29T19:14:04.802Z,14.23
2023-04-29T19:16:31.435Z,14.30
2023-04-29T19:18:58.049Z,14.25
2023-04-29T19:21:24.833Z,14.27
2023-04-29T19:23:52.219Z,14.20
2023-04-29T19:26:18.870Z,14.39
2023-04-29T19:28:45.697Z,14.63
2023-04-29T19:31:12.407Z,14.70
2023-04-29T19:33:39.107Z,14.53
2023-04-29T19:36:06.018Z,14.60
2023-04-29T19:38:32.893Z,14.78
2023-04-29T19:40:59.618Z,14.76
2023-04-29T19:43:26.226Z,14.83
2023-04-29T19:45:52.904Z,14.62
2023-04-29T19:48:19.532Z,14.67
2023-04-29T19:50:46.240Z,14.73
2023-04-29T19:53:13.028Z,14.69
2023-04-29T19:55:40.054Z,14.67
2023-04-29T19:58:07.570Z,14.62
2023-04-29T20:00:34.353Z,14.71
2023-04-29T20:03:01.309Z,14.58
2023-04-29T20:05:28.946Z,14.50
2023-04-29T20:07:55.808Z,14.45
2023-04-29T20:10:22.789Z,14.57
2023-04-29T20:12:49.586Z,14.51
2023-04-29T20:15:16.425Z,14.57
2023-04-29T20:17:43.250Z,14.53
2023-04-29T20:20:10.484Z,14.55
2023-04-29T20:22:37.728Z,14.44
2023-04-29T20:25:05.071Z,14.56
2023-04-29T20:27:32.346Z,14.69
2023-04-29T20:29:59.079Z,14.48
2023-04-29T20:32:26.290Z,14.39
2023-04-29T20:34:53.905Z,14.29
2023-04-29T20:37:20.625Z,14.47
2023-04-29T20:39:47.675Z,14.43
2023-04-29T20:42:14.715Z,14.45
2023-04-29T20:44:41.561Z,14.39
2023-04-29T20:47:08.594Z,14.47
2023-04-29T20:49:35.264Z,14.33
2023-04-29T20:52:02.088Z,14.35
2023-04-29T20:54:28.773Z,14.22
2023-04-29T20:56:55.452Z,14.29
2023-04-29T20:59:22.176Z,14.44
2023-04-29T21:01:48.950Z,14.45
2023-04-29T21:04:15.646Z,14.35
2023-04-29T21:06:42.497Z,14.49
2023-04-29T21:09:09.232Z,14.35
2023-04-29T21:11:35.990Z,14.31
2023-04-29T21:14:02.667Z,14.25
2023-04-29T21:16:29.314Z,14.17
2023-04-29T21:18:55.964Z,14.03
2023-04-29T21:21:23.233Z,13.85
2023-04-29T21:23:49.857Z,13.93
2023-04-29T21:26:16.633Z,13.85
2023-04-29T21:28:43.291Z,13.81
2023-04-29T21:31:16.356Z,13.69
2023-04-29T21:33:44.339Z,13.64
2023-04-29T21:36:11.506Z,13.73
2023-04-29T21:38:38.321Z,13.79
2023-04-29T21:41:06.155Z,13.68
2023-04-29T21:43:33.441Z,13.69
2023-04-29T21:46:00.552Z,13.71
2023-04-29T21:48:27.472Z,13.64
2023-04-29T21:50:54.275Z,13.67
2023-04-29T21:53:20.920Z,13.63
2023-04-29T21:55:47.861Z,13.66
2023-04-29T21:58:15.987Z,13.64
2023-04-29T22:00:51.221Z,13.75
2023-04-29T22:03:18.111Z,13.73
2023-04-29T22:05:44.826Z,13.58
2023-04-29T22:08:11.582Z,13.69
2023-04-29T22:10:40.076Z,13.84
2023-04-29T22:13:07.800Z,13.69
2023-04-29T22:15:34.508Z,13.74
2023-04-29T22:18:01.290Z,13.58
2023-04-29T22:20:28.369Z,13.69
2023-04-29T22:22:56.001Z,13.78
2023-04-29T22:25:22.881Z,13.74
2023-04-29T22:27:50.099Z,13.71
2023-04-29T22:30:20.562Z,13.75
2023-04-29T22:32:47.319Z,13.77
2023-04-29T22:35:14.013Z,13.59
2023-04-29T22:37:41.025Z,13.56
2023-04-29T22:40:08.281Z,13.63
2023-04-29T22:42:35.117Z,13.61
2023-04-29T22:45:01.835Z,13.60
2023-04-29T22:47:29.308Z,13.71
2023-04-29T22:49:56.202Z,13.64
2023-04-29T22:52:23.160Z,13.58
2023-04-29T22:54:49.819Z,13.76
2023-04-29T22:57:16.507Z,13.59
2023-04-29T22:59:43.336Z,13.58
2023-04-29T23:02:10.115Z,13.58
2023-04-29T23:04:36.787Z,13.54
2023-04-29T23:07:03.542Z,13.55
2023-04-29T23:09:30.197Z,13.53
2023-04-29T23:11:57.778Z,13.58
2023-04-29T23:14:24.484Z,13.63
2023-04-29T23:16:51.299Z,13.65
2023-04-29T23:19:17.983Z,13.42
2023-04-29T23:21:44.722Z,13.35
2023-04-29T23:25:22.314Z,14.10
2023-04-29T23:27:49.031Z,14.19
2023-04-29T23:30:15.732Z,14.17
2023-04-29T23:32:42.471Z,14.20
2023-04-29T23:35:11.328Z,14.14
2023-04-29T23:37:38.597Z,14.06
2023-04-29T23:40:06.982Z,14.02
2023-04-29T23:42:33.970Z,14.13
2023-04-29T23:45:00.929Z,14.01
2023-04-29T23:47:30.454Z,14.18
2023-04-29T23:49:57.274Z,14.05
2023-04-29T23:52:24.628Z,14.16
2023-04-29T23:54:51.298Z,14.25
2023-04-29T23:57:17.971Z,14.12
2023-04-29T23:59:45.502Z,14.12
